x

San Clemente Basin - 27nm Se Of San Clemente Is, Ca (46086) Wave Buoy

9:50am - Mon 19th Feb 2018 All times are PST. -8 hours from GMT.

  • Sig Wave height 10.5ft
  • Swell Direction
  • Peak Period 8s
  • Average Period 7s
  • Wind
    27mph, 34mph gusts
  • Sea Temp 62°f
  • Air Temp 55°f
  • Sea Pressure 1015.6mb
  • San Clemente Basin - 27nm Se Of San Clemente Is, Ca
  • San Clemente Basin - 27nm Se Of San Clemente Is, Ca

More Historic Weather Station data

Upgrade to MSW Pro to gain access to the past 30 days of data for over 8000 Wavebouys and Weather Stations around the globe.

Join

Comparision Forecast

View Surf forecast
   
Mon 02/19 9:50am 10.5ft 8s 7s 27 34 mph 1015.6mb 62f 55f
8:50am 11ft 9s 7s 27 31 mph 1015mb 62f 55f
6:50am 13ft 9s 7s 29 36 mph 1013.4mb 62f 56f
5:50am 12ft 10s 7s 31 43 mph 1012.6mb 62f 56f
4:50am 10.5ft 9s 7s 31 38 mph 1012.4mb 62f 56f
3:50am 10ft 8s 6s 29 36 mph 1012.5mb 62f 56f
2:50am 8ft 6s 6s 25 34 mph 1012.8mb 62f 57f
1:50am 8ft 8s 6s 25 29 mph 1013.1mb 62f 57f
12:50am 7ft 6s 6s 25 31 mph 1013.3mb 62f 56f
Sun 02/18 11:50pm 6ft 6s 5s 25 29 mph 1013.6mb 62f 57f
10:50pm 4.5ft 14s 5s 22 27 mph 1013.3mb 62f 58f
9:50pm 4.5ft 15s 5s 20 25 mph 1013.5mb 62f 58f
8:50pm 4ft 14s 5s 18 22 mph 1013.5mb 62f 58f
7:50pm 3.5ft 15s 5s 18 22 mph 1013.4mb 62f 58f
6:50pm 3.5ft 14s 6s 13 18 mph 1013.2mb 62f 59f
5:50pm 3.5ft 14s 5s 16 18 mph 1013.4mb 62f 59f
4:50pm 3.5ft 14s 6s 13 16 mph 1013.4mb 62f 60f
3:50pm 3.5ft 15s 6s 11 13 mph 1013.6mb 62f 60f
2:50pm 3.5ft 14s 6s 11 13 mph 1013.8mb 62f 59f
1:50pm 3.5ft 15s 6s 11 16 mph 1014.3mb 62f 59f
12:50pm 3.5ft 14s 6s 11 13 mph 1014.8mb 62f 59f
11:50am 3.5ft 15s 6s 11 13 mph 1015.9mb 62f 59f
10:50am 3.5ft 14s 7s 9 11 mph 1016.3mb 62f 60f
9:50am 3.5ft 15s 7s 11 13 mph 1016.4mb 62f 60f
8:50am 3.5ft 15s 7s 11 13 mph 1016.3mb 62f 60f
7:50am 3.5ft 15s 7s 4 7 mph 1016mb 62f 61f
6:50am 3.5ft 14s 7s 7 9 mph 1015.8mb 62f 60f
5:50am 3.5ft 16s 7s 7 9 mph 1015.9mb 62f 60f
4:50am 3.5ft 14s 7s 4 7 mph 1015.8mb 62f 60f
3:50am 3.5ft 16s 7s 7 7 mph 1015.9mb 62f 61f
2:50am 3.5ft 15s 6s 7 9 mph 1016.1mb 62f 61f
1:50am 3.5ft 10s 6s 9 9 mph 1016.5mb 62f 61f
12:50am 3.5ft 11s 7s 9 9 mph 1016.9mb 62f 62f
Sat 02/17 11:50pm 3.5ft 14s 7s 9 9 mph 1017mb 62f 62f
10:50pm 3.5ft 10s 7s 9 9 mph 1017.3mb 62f 62f
9:50pm 3.5ft 14s 7s 9 11 mph 1017.5mb 63f 62f
8:50pm 3.5ft 10s 7s 9 11 mph 1017.5mb 63f 62f
7:50pm 3.5ft 10s 7s 11 13 mph 1017.6mb 63f 62f
6:50pm 3.5ft 11s 7s 9 9 mph 1017.6mb 63f 62f
5:50pm 4ft 12s 7s 9 9 mph 1017.6mb 63f 62f
4:50pm 3.5ft 13s 6s 9 11 mph 1017.6mb 63f 62f
3:50pm 3.5ft 11s 7s 11 13 mph 1017.7mb 63f 62f
2:50pm 3.5ft 11s 7s 9 11 mph 1017.8mb 63f 63f
1:50pm 3.5ft 13s 7s 7 7 mph 1018.5mb 63f 62f
12:50pm 3.5ft 13s 7s 7 7 mph 1019.3mb 63f 62f
11:50am 3.5ft 12s 7s 4 4 mph 1020.4mb 63f 62f
10:50am 3.5ft 11s 7s 7 9 mph 1020.8mb 63f 62f
9:50am 3.5ft 11s 7s 7 9 mph 1020.5mb 62f 62f
8:50am 3.5ft 11s 7s 4 4 mph 1020.1mb 62f 61f
7:50am 3.5ft 11s 7s 4 7 mph 1019.7mb 62f 61f
6:50am 3.5ft 11s 7s 7 9 mph 1019.1mb 62f 61f
5:50am 3.5ft 12s 7s 9 11 mph 1018.8mb 62f 61f
4:50am 3.5ft 12s 7s 7 9 mph 1018.8mb 62f 61f
3:50am 3.5ft 12s 7s 4 7 mph 1019mb 62f 61f
2:50am 3.5ft 12s 7s 4 4 mph 1019.2mb 62f 62f
1:50am 3.5ft 13s 7s 9 11 mph 1019.4mb 62f 62f
12:50am 3.5ft 12s 7s 11 13 mph 1019.6mb 62f 62f
Fri 02/16 11:50pm 3.5ft 12s 7s 7 9 mph 1019.7mb 62f 63f
10:50pm 3.5ft 13s 8s 9 9 mph 1019.7mb 62f 62f
9:50pm 3.5ft 12s 7s 4 7 mph 1019.6mb 62f 63f
8:50pm 3.5ft 12s 7s 7 9 mph 1019.5mb 63f 63f
7:50pm 4ft 12s 7s 9 11 mph 1019.3mb 63f 63f
6:50pm 4ft 13s 7s 7 7 mph 1019mb 63f 63f
5:50pm 4.5ft 12s 7s 7 9 mph 1018.5mb 63f 64f
4:50pm 4.5ft 13s 6s 9 11 mph 1018.3mb 63f 64f
3:50pm 4.5ft 13s 7s 11 13 mph 1018.2mb 63f 64f
2:50pm 4.5ft 13s 7s 9 11 mph 1018mb 63f 63f
1:50pm 4.5ft 13s 7s 9 11 mph 1018.2mb 63f 63f
12:50pm 4.5ft 13s 7s 7 9 mph 1019.2mb 63f 63f
11:50am 4.5ft 13s 7s 11 11 mph 1020mb 62f 63f
10:50am 4.5ft 13s 7s 9 11 mph 1020.5mb 62f 63f
9:50am 4ft 13s 7s 9 9 mph 1020.6mb 62f 63f
8:50am 4ft 14s 7s 9 11 mph 1020.4mb 62f 63f
7:50am 4ft 14s 7s 9 11 mph 1019.9mb 62f 63f
6:50am 4ft 13s 6s 11 13 mph 1019.3mb 62f 63f
5:50am 3.5ft 14s 6s 13 16 mph 1018.8mb 62f 63f
4:50am 4ft 14s 6s 9 13 mph 1019.4mb 62f 63f
3:50am 4.5ft 14s 6s 9 11 mph 1019.4mb 62f 63f
2:50am 4.5ft 14s 7s 11 13 mph 1019.3mb 62f 62f
1:50am 4.5ft 14s 7s 11 13 mph 1020mb 62f 62f
12:50am 4.5ft 14s 6s 11 13 mph 1020mb 62f 62f
Thu 02/15 11:50pm 4.5ft 14s 6s 11 13 mph 1020.2mb 62f 61f
10:50pm 5ft 14s 6s 13 16 mph 1020.5mb 62f 62f
9:50pm 5ft 14s 6s 11 13 mph 1020.5mb 62f 62f
8:50pm 5ft 15s 6s 13 16 mph 1020mb 62f 61f
7:50pm 4.5ft 14s  -  13 16 mph 1019.6mb 62f 61f